createdAt,value
2022-11-27T00:01:49.396Z,2.70
2022-11-27T00:06:00.686Z,4.20
2022-11-27T00:10:03.290Z,3.90
2022-11-27T00:14:06.020Z,6.07
2022-11-27T00:18:08.128Z,4.57
2022-11-27T00:22:11.011Z,3.55
2022-11-27T00:26:13.145Z,5.57
2022-11-27T00:30:15.565Z,3.47
2022-11-27T00:34:17.552Z,4.22
2022-11-27T00:38:20.551Z,5.03
2022-11-27T00:42:22.721Z,3.33
2022-11-27T00:46:30.170Z,4.15
2022-11-27T00:54:34.431Z,8.25
2022-11-27T00:58:36.662Z,8.07
2022-11-27T01:02:38.828Z,4.38
2022-11-27T01:06:42.215Z,4.53
2022-11-27T01:10:55.294Z,7.00
2022-11-27T01:14:57.352Z,5.20
2022-11-27T01:19:01.280Z,6.35
2022-11-27T01:23:03.628Z,4.57
2022-11-27T01:27:05.651Z,4.65
2022-11-27T01:31:11.063Z,4.68
2022-11-27T01:35:13.031Z,4.03
2022-11-27T01:39:20.987Z,6.47
2022-11-27T01:43:48.268Z,4.20
2022-11-27T01:47:54.418Z,6.55
2022-11-27T01:52:01.182Z,4.93
2022-11-27T01:56:05.547Z,4.90
2022-11-27T02:00:10.378Z,6.03
2022-11-27T02:04:15.924Z,6.80
2022-11-27T02:08:18.469Z,5.40
2022-11-27T02:12:25.315Z,5.43
2022-11-27T02:16:45.324Z,7.15
2022-11-27T02:20:50.590Z,5.18
2022-11-27T02:24:56.007Z,5.90
2022-11-27T02:29:09.241Z,5.57
2022-11-27T02:33:20.138Z,4.57
2022-11-27T02:38:21.122Z,7.43
2022-11-27T02:42:25.560Z,6.10
2022-11-27T02:50:33.789Z,5.82
2022-11-27T02:54:36.551Z,3.90
2022-11-27T02:58:40.143Z,6.68
2022-11-27T03:02:51.151Z,4.80
2022-11-27T03:06:58.219Z,6.43
2022-11-27T03:11:12.549Z,5.47
2022-11-27T03:15:15.623Z,3.42
2022-11-27T03:19:30.923Z,4.53
2022-11-27T03:23:33.156Z,7.15
2022-11-27T03:28:04.333Z,3.22
2022-11-27T03:32:06.631Z,4.65
2022-11-27T03:36:20.907Z,3.75
2022-11-27T03:40:30.504Z,4.87
2022-11-27T03:44:48.945Z,3.75
2022-11-27T03:49:02.998Z,3.78
2022-11-27T03:53:37.654Z,6.18
2022-11-27T03:57:49.379Z,3.45
2022-11-27T04:01:51.612Z,4.90
2022-11-27T04:05:54.039Z,4.72
2022-11-27T04:09:56.026Z,7.32
2022-11-27T04:13:58.178Z,4.40
2022-11-27T04:18:00.181Z,5.65
2022-11-27T04:22:02.228Z,4.85
2022-11-27T04:26:05.131Z,1.35
2022-11-27T04:30:08.054Z,2.47
2022-11-27T04:34:10.128Z,4.78
2022-11-27T04:38:12.608Z,3.60
2022-11-27T04:42:14.654Z,5.35
2022-11-27T04:46:16.760Z,3.47
2022-11-27T04:50:18.947Z,3.63
2022-11-27T04:54:21.002Z,2.92
2022-11-27T04:58:23.253Z,5.10
2022-11-27T05:02:25.454Z,3.70
2022-11-27T05:06:27.776Z,4.15
2022-11-27T05:10:29.874Z,2.30
2022-11-27T05:14:31.967Z,3.13
2022-11-27T05:18:34.586Z,2.70
2022-11-27T05:22:36.722Z,7.57
2022-11-27T05:26:44.676Z,3.28
2022-11-27T05:30:46.977Z,3.67
2022-11-27T05:34:49.783Z,3.45
2022-11-27T05:38:52.306Z,3.10
2022-11-27T05:42:54.615Z,2.83
2022-11-27T05:46:57.323Z,2.67
2022-11-27T05:50:59.489Z,1.63
2022-11-27T05:55:01.905Z,4.47
2022-11-27T05:59:03.886Z,2.03
2022-11-27T06:03:06.097Z,2.85
2022-11-27T06:07:08.379Z,2.17
2022-11-27T06:11:13.379Z,1.90
2022-11-27T06:19:53.511Z,2.30
2022-11-27T06:23:56.839Z,1.92
2022-11-27T06:27:59.079Z,3.90
2022-11-27T06:32:01.186Z,3.47
2022-11-27T06:36:04.550Z,1.85
2022-11-27T06:40:07.264Z,2.53
2022-11-27T06:44:10.537Z,2.78
2022-11-27T06:48:12.991Z,3.50
2022-11-27T06:52:15.194Z,1.98
2022-11-27T06:56:23.073Z,2.92
2022-11-27T07:00:29.525Z,5.05
2022-11-27T07:04:31.715Z,3.97
2022-11-27T07:08:35.233Z,3.33
2022-11-27T07:12:37.279Z,4.88
2022-11-27T07:16:41.464Z,2.78
2022-11-27T07:20:56.251Z,1.92
2022-11-27T07:24:58.885Z,2.45
2022-11-27T07:29:01.035Z,1.85
2022-11-27T07:33:03.145Z,1.65
2022-11-27T07:37:05.196Z,3.22
2022-11-27T07:41:07.879Z,2.42
2022-11-27T07:45:11.413Z,3.58
2022-11-27T07:49:13.406Z,1.95
2022-11-27T07:53:15.394Z,2.25
2022-11-27T07:57:17.482Z,1.77
2022-11-27T08:01:20.163Z,2.97
2022-11-27T08:05:22.347Z,3.40
2022-11-27T08:09:24.652Z,2.10
2022-11-27T08:13:26.730Z,2.67
2022-11-27T08:17:28.774Z,2.60
2022-11-27T08:21:31.260Z,2.38
2022-11-27T08:25:33.333Z,1.98
2022-11-27T08:29:35.537Z,5.50
2022-11-27T08:33:38.120Z,2.83
2022-11-27T08:37:40.259Z,1.42
2022-11-27T08:41:42.289Z,0.98
2022-11-27T08:45:44.464Z,1.20
2022-11-27T08:49:46.970Z,1.27
2022-11-27T08:53:49.174Z,4.40
2022-11-27T08:57:51.560Z,1.00
2022-11-27T09:01:53.836Z,1.48
2022-11-27T09:05:56.124Z,0.85
2022-11-27T09:09:58.443Z,1.50
2022-11-27T09:14:13.331Z,1.85
2022-11-27T09:18:43.565Z,4.57
2022-11-27T09:22:45.610Z,1.88
2022-11-27T09:26:47.724Z,3.83
2022-11-27T09:30:54.529Z,1.27
2022-11-27T09:34:56.886Z,1.55
2022-11-27T09:39:01.813Z,2.13
2022-11-27T09:43:10.272Z,2.47
2022-11-27T09:47:19.850Z,1.35
2022-11-27T09:51:34.575Z,1.67
2022-11-27T09:59:51.234Z,1.83
2022-11-27T10:03:53.741Z,1.90
2022-11-27T10:08:03.204Z,0.93
2022-11-27T10:12:20.807Z,1.85
2022-11-27T10:16:48.792Z,0.73
2022-11-27T10:21:14.173Z,1.00
2022-11-27T10:25:39.682Z,3.22
2022-11-27T10:29:57.320Z,2.05
2022-11-27T10:34:02.928Z,1.95
2022-11-27T10:38:19.881Z,1.13
2022-11-27T10:42:34.271Z,1.10
2022-11-27T10:46:42.613Z,1.23
2022-11-27T10:50:50.812Z,2.33
2022-11-27T10:55:01.632Z,1.08
2022-11-27T10:59:34.888Z,1.80
2022-11-27T11:03:40.266Z,1.55
2022-11-27T11:07:42.572Z,1.50
2022-11-27T11:11:45.607Z,2.03
2022-11-27T11:15:52.713Z,0.63
2022-11-27T11:19:58.131Z,1.70
2022-11-27T11:24:26.811Z,3.53
2022-11-27T11:28:33.978Z,1.83
2022-11-27T11:32:40.614Z,0.90
2022-11-27T11:36:55.733Z,1.23
2022-11-27T11:41:01.630Z,1.10
2022-11-27T11:45:18.234Z,2.47
2022-11-27T11:49:26.191Z,1.20
2022-11-27T11:53:45.558Z,5.63
2022-11-27T11:58:03.933Z,1.58
2022-11-27T12:02:31.531Z,0.98
2022-11-27T12:06:52.314Z,0.90
2022-11-27T12:11:09.585Z,1.73
2022-11-27T12:15:29.910Z,2.08
2022-11-27T12:19:54.382Z,2.80
2022-11-27T12:24:19.313Z,0.98
2022-11-27T12:29:02.513Z,2.47
2022-11-27T12:33:31.564Z,2.88
2022-11-27T12:37:57.751Z,1.42
2022-11-27T12:42:08.661Z,2.00
2022-11-27T12:46:22.837Z,3.33
2022-11-27T12:51:03.472Z,2.45
2022-11-27T12:55:23.342Z,1.73
2022-11-27T12:59:33.410Z,10.55
2022-11-27T13:04:00.367Z,1.05
2022-11-27T13:08:14.746Z,3.20
2022-11-27T13:12:32.693Z,1.27
2022-11-27T13:16:46.771Z,0.77
2022-11-27T13:20:52.754Z,1.13
2022-11-27T13:24:56.756Z,1.02
2022-11-27T13:29:08.704Z,1.97
2022-11-27T13:33:28.728Z,1.33
2022-11-27T13:37:38.751Z,2.35
2022-11-27T13:41:41.388Z,1.95
2022-11-27T13:45:44.421Z,1.13
2022-11-27T13:50:03.086Z,1.65
2022-11-27T13:54:18.304Z,0.85
2022-11-27T13:58:38.203Z,3.15
2022-11-27T14:02:41.677Z,2.53
2022-11-27T14:06:51.434Z,1.67
2022-11-27T14:10:58.749Z,1.42
2022-11-27T14:15:05.982Z,0.98
2022-11-27T14:19:32.095Z,0.80
2022-11-27T14:23:50.584Z,1.05
2022-11-27T14:28:11.244Z,1.30
2022-11-27T14:32:16.112Z,2.97
2022-11-27T14:36:26.463Z,1.00
2022-11-27T14:40:28.941Z,3.65
2022-11-27T14:44:31.882Z,2.10
2022-11-27T14:48:47.112Z,1.30
2022-11-27T14:52:56.107Z,0.60
2022-11-27T14:56:58.780Z,1.55
2022-11-27T15:01:06.974Z,1.10
2022-11-27T15:05:38.574Z,3.30
2022-11-27T15:09:46.638Z,2.67
2022-11-27T15:13:59.050Z,1.08
2022-11-27T15:18:03.915Z,1.40
2022-11-27T15:22:05.887Z,0.93
2022-11-27T15:26:16.812Z,1.40
2022-11-27T15:30:19.317Z,2.63
2022-11-27T15:34:24.384Z,2.03
2022-11-27T15:38:26.601Z,2.70
2022-11-27T15:42:28.998Z,1.42
2022-11-27T15:46:34.631Z,1.50
2022-11-27T15:50:36.808Z,2.83
2022-11-27T15:54:39.083Z,1.13
2022-11-27T15:58:41.880Z,3.05
2022-11-27T16:02:43.959Z,6.05
2022-11-27T16:06:46.150Z,2.88
2022-11-27T16:10:48.577Z,4.00
2022-11-27T16:14:50.802Z,3.63
2022-11-27T16:18:57.278Z,5.97
2022-11-27T16:22:59.328Z,6.93
2022-11-27T16:27:01.632Z,4.35
2022-11-27T16:31:08.451Z,6.10
2022-11-27T16:35:10.967Z,11.07
2022-11-27T16:39:13.691Z,5.80
2022-11-27T16:43:16.491Z,6.45
2022-11-27T16:47:19.329Z,4.75
2022-11-27T16:51:28.650Z,6.93
2022-11-27T16:55:31.609Z,5.63
2022-11-27T16:59:37.974Z,5.57
2022-11-27T17:03:40.226Z,9.25
2022-11-27T17:07:42.718Z,4.38
2022-11-27T17:11:48.738Z,3.47
2022-11-27T17:15:51.328Z,3.28
2022-11-27T17:20:00.254Z,1.80
2022-11-27T17:24:11.630Z,3.30
2022-11-27T17:28:18.378Z,8.73
2022-11-27T17:32:20.523Z,4.28
2022-11-27T17:36:24.715Z,2.60
2022-11-27T17:40:26.829Z,8.55
2022-11-27T17:44:28.797Z,5.40
2022-11-27T17:48:31.484Z,2.53
2022-11-27T17:52:33.645Z,3.05
2022-11-27T17:56:35.660Z,1.75
2022-11-27T18:00:40.667Z,1.77
2022-11-27T18:04:42.834Z,1.15
2022-11-27T18:08:46.362Z,1.40
2022-11-27T18:12:50.205Z,0.70
2022-11-27T18:16:52.595Z,2.30
2022-11-27T18:20:54.998Z,1.50
2022-11-27T18:24:57.229Z,3.47
2022-11-27T18:29:00.494Z,1.45
2022-11-27T18:33:03.631Z,1.13
2022-11-27T18:37:06.310Z,1.20
2022-11-27T18:41:17.162Z,3.15
2022-11-27T18:45:32.738Z,1.23
2022-11-27T18:49:40.277Z,2.50
2022-11-27T18:53:43.696Z,3.88
2022-11-27T18:57:46.463Z,5.35
2022-11-27T19:01:49.464Z,3.97
2022-11-27T19:05:51.802Z,7.10
2022-11-27T19:09:54.257Z,4.25
2022-11-27T19:13:58.379Z,5.95
2022-11-27T19:18:00.401Z,7.22
2022-11-27T19:22:03.315Z,8.02
2022-11-27T19:26:10.528Z,5.38
2022-11-27T19:30:13.869Z,5.82
2022-11-27T19:34:16.358Z,7.47
2022-11-27T19:38:18.627Z,9.13
2022-11-27T19:42:22.536Z,10.82
2022-11-27T19:46:27.684Z,5.97
2022-11-27T19:50:30.131Z,5.78
2022-11-27T19:54:32.424Z,7.75
2022-11-27T19:58:35.832Z,8.85
2022-11-27T20:02:38.601Z,7.63
2022-11-27T20:06:41.235Z,6.07
2022-11-27T20:10:49.819Z,4.68
2022-11-27T20:14:52.173Z,8.35
2022-11-27T20:18:55.338Z,9.93
2022-11-27T20:22:58.879Z,6.03
2022-11-27T20:27:00.873Z,5.47
2022-11-27T20:31:04.285Z,7.60
2022-11-27T20:35:06.958Z,9.73
2022-11-27T20:39:13.916Z,9.35
2022-11-27T20:43:19.186Z,5.65
2022-11-27T20:47:21.400Z,10.43
2022-11-27T20:51:30.226Z,20.02
2022-11-27T20:55:34.590Z,11.80
2022-11-27T20:59:37.346Z,19.13
2022-11-27T21:03:39.598Z,9.93
2022-11-27T21:07:43.137Z,9.48
2022-11-27T21:11:48.645Z,8.82
2022-11-27T21:15:50.870Z,12.13
2022-11-27T21:19:53.330Z,6.97
2022-11-27T21:23:55.754Z,8.60
2022-11-27T21:27:59.585Z,6.43
2022-11-27T21:32:03.474Z,7.10
2022-11-27T21:36:05.985Z,6.82
2022-11-27T21:40:08.697Z,10.18
2022-11-27T21:44:10.802Z,8.43
2022-11-27T21:48:14.461Z,9.23
2022-11-27T21:52:17.428Z,6.65
2022-11-27T21:56:22.552Z,7.82
2022-11-27T22:00:24.685Z,6.72
2022-11-27T22:04:26.842Z,6.60
2022-11-27T22:08:29.858Z,7.82
2022-11-27T22:12:32.303Z,6.13
2022-11-27T22:16:44.154Z,6.90
2022-11-27T22:20:47.480Z,8.77
2022-11-27T22:24:49.863Z,8.20
2022-11-27T22:28:52.481Z,5.20
2022-11-27T22:32:56.463Z,6.45
2022-11-27T22:36:58.535Z,7.80
2022-11-27T22:41:00.789Z,6.18
2022-11-27T22:45:03.032Z,8.77
2022-11-27T22:49:06.718Z,7.78
2022-11-27T22:53:08.823Z,8.52
2022-11-27T22:57:10.837Z,5.13
2022-11-27T23:01:20.740Z,7.45
2022-11-27T23:05:22.917Z,4.75
2022-11-27T23:09:24.995Z,5.57
2022-11-27T23:13:27.200Z,8.95
2022-11-27T23:17:29.269Z,4.40
2022-11-27T23:21:32.878Z,5.20
2022-11-27T23:25:35.393Z,5.33
2022-11-27T23:29:37.389Z,5.13
2022-11-27T23:33:40.079Z,6.60
2022-11-27T23:37:42.400Z,7.65
2022-11-27T23:41:44.477Z,6.57
2022-11-27T23:45:46.720Z,5.97
2022-11-27T23:49:48.831Z,7.47
2022-11-27T23:53:51.102Z,6.25
2022-11-27T23:57:53.160Z,7.32
